Time;durP1;ratioP1;P1;durP2;ratioP2;P2;SDS_P1;SDS_P2;PMS_P1;PMS_P2;Temp;Humidity;BMP_temperature;BMP_pressure;BME280_temperature;BME280_humidity;BME280_pressure;Samples;Min_cycle;Max_cycle;Signal;HPM_P1;HPM_P2
2023/06/30 03:49:48;;;;;;;8.98;7.75;;;;;;;14.73;100.00;100066.19;5561082;32;171133;-85
2023/06/30 03:52:51;;;;;;;11.07;8.23;;;;;;;14.73;100.00;100066.19;5545379;32;33881;-85
2023/06/30 03:55:54;;;;;;;11.55;8.07;;;;;;;14.31;100.00;100062.00;5545343;32;34183;-86
2023/06/30 03:58:57;;;;;;;11.95;8.35;;;;;;;14.36;100.00;100059.84;5545335;32;33398;-86
2023/06/30 04:01:59;;;;;;;8.30;7.50;;;;;;;14.44;100.00;100053.97;5545279;32;34197;-86
2023/06/30 04:05:02;;;;;;;11.27;7.45;;;;;;;14.60;100.00;100061.75;5544321;32;33635;-85
2023/06/30 04:08:05;;;;;;;12.30;7.90;;;;;;;14.86;100.00;100059.03;5544678;32;34195;-86
2023/06/30 04:11:08;;;;;;;11.20;7.70;;;;;;;15.10;100.00;100060.87;5545506;32;33441;-86
2023/06/30 04:14:11;;;;;;;18.02;6.72;;;;;;;15.30;100.00;100059.38;5544473;32;35108;-85
2023/06/30 04:17:14;;;;;;;14.45;7.45;;;;;;;15.43;100.00;100066.47;5543195;32;34396;-85
2023/06/30 04:20:16;;;;;;;9.20;7.37;;;;;;;15.70;100.00;100073.38;5542975;32;34139;-85
2023/06/30 04:23:19;;;;;;;8.10;7.00;;;;;;;15.88;100.00;100066.59;5542977;32;33741;-86
2023/06/30 04:26:22;;;;;;;7.65;6.80;;;;;;;15.96;100.00;100076.75;5543225;32;33288;-86
2023/06/30 04:29:25;;;;;;;8.38;7.40;;;;;;;16.09;100.00;100073.12;5542798;32;33649;-86
2023/06/30 04:32:27;;;;;;;8.93;7.80;;;;;;;16.22;100.00;100073.00;5541339;32;33774;-86
2023/06/30 04:35:30;;;;;;;8.15;7.32;;;;;;;16.30;100.00;100071.41;5523813;32;33818;-86
2023/06/30 04:38:34;;;;;;;10.30;7.75;;;;;;;16.70;100.00;100079.94;5523612;32;33635;-86
2023/06/30 04:41:37;;;;;;;10.35;7.28;;;;;;;17.20;100.00;100068.75;5523521;32;34408;-86
2023/06/30 04:44:40;;;;;;;11.15;8.40;;;;;;;17.37;100.00;100062.00;5524433;32;35252;-86
2023/06/30 04:47:44;;;;;;;8.10;7.30;;;;;;;17.62;100.00;100067.13;5528664;32;33450;-86
2023/06/30 04:50:46;;;;;;;8.07;7.32;;;;;;;17.69;100.00;100052.22;5528814;32;33596;-86
2023/06/30 04:53:49;;;;;;;11.82;7.93;;;;;;;17.87;100.00;100052.50;5528546;32;33810;-86
2023/06/30 04:56:52;;;;;;;12.95;7.25;;;;;;;17.79;100.00;100046.91;5528879;32;33711;-86
2023/06/30 04:59:55;;;;;;;10.32;8.45;;;;;;;17.94;100.00;100051.97;5521768;32;33880;-84
2023/06/30 05:02:57;;;;;;;10.32;8.35;;;;;;;18.35;100.00;100052.03;5515302;32;33339;-85
2023/06/30 05:06:00;;;;;;;12.18;8.63;;;;;;;18.54;100.00;100051.25;5516765;32;33677;-85
2023/06/30 05:09:03;;;;;;;15.70;8.20;;;;;;;18.77;100.00;100049.22;5534447;32;33812;-85
2023/06/30 05:12:06;;;;;;;9.07;7.82;;;;;;;18.88;100.00;100053.63;5534507;32;34930;-85
2023/06/30 05:15:09;;;;;;;12.57;9.73;;;;;;;19.05;100.00;100052.09;5534356;32;33810;-85
2023/06/30 05:18:12;;;;;;;14.85;10.27;;;;;;;19.30;100.00;100049.03;5535018;32;33478;-85
2023/06/30 05:21:14;;;;;;;16.15;9.93;;;;;;;19.73;100.00;100050.41;5534238;32;33894;-86
2023/06/30 05:24:17;;;;;;;17.30;9.25;;;;;;;21.49;100.00;100047.00;5535072;32;34838;-85
2023/06/30 05:27:20;;;;;;;12.68;8.07;;;;;;;24.75;82.20;100050.13;5528417;32;33852;-85
2023/06/30 05:30:23;;;;;;;13.18;9.98;;;;;;;27.92;68.65;100053.69;5515765;32;34683;-86
2023/06/30 05:33:25;;;;;;;12.00;8.23;;;;;;;30.72;49.74;100059.19;5515358;32;33821;-86
2023/06/30 05:36:30;;;;;;;8.82;7.32;;;;;;;32.11;43.18;100053.94;5514156;32;33699;-86
2023/06/30 05:39:35;;;;;;;12.05;7.68;;;;;;;34.05;37.77;100061.59;5514382;32;33849;-86
2023/06/30 05:42:37;;;;;;;12.57;8.80;;;;;;;34.76;37.13;100063.34;5513953;32;33939;-87
2023/06/30 05:45:40;;;;;;;10.98;8.48;;;;;;;35.20;33.18;100071.91;5512234;32;33888;-86
2023/06/30 05:48:43;;;;;;;9.57;8.52;;;;;;;35.69;31.75;100067.78;5512212;32;34044;-87
2023/06/30 05:51:46;;;;;;;8.05;6.87;;;;;;;36.48;30.91;100073.31;5520109;32;34299;-87
2023/06/30 05:54:49;;;;;;;9.95;8.05;;;;;;;36.87;31.49;100079.84;5531336;32;33978;-87
2023/06/30 05:57:51;;;;;;;10.63;7.62;;;;;;;35.56;32.01;100074.47;5527162;32;34698;-88
2023/06/30 06:00:54;;;;;;;10.20;7.90;;;;;;;35.54;31.66;100078.56;5539044;32;34086;-88
2023/06/30 06:03:57;;;;;;;8.75;7.03;;;;;;;35.67;31.83;100074.63;5522013;32;34186;-89
2023/06/30 06:07:02;;;;;;;11.73;8.32;;;;;;;35.84;32.34;100074.63;5523541;32;33366;-90
2023/06/30 06:10:06;;;;;;;11.35;8.45;;;;;;;36.08;30.60;100071.63;5524136;32;35293;-86
2023/06/30 06:13:09;;;;;;;13.95;8.10;;;;;;;34.20;33.06;100074.84;5533009;32;34244;-86
2023/06/30 06:16:12;;;;;;;13.73;7.65;;;;;;;35.37;31.83;100075.75;5511086;32;33869;-86
2023/06/30 06:19:14;;;;;;;14.05;8.30;;;;;;;35.39;32.02;100077.19;5516832;32;34091;-86
2023/06/30 06:22:17;;;;;;;11.43;7.72;;;;;;;34.19;32.80;100081.44;5521591;32;35015;-84
2023/06/30 06:25:20;;;;;;;14.87;7.72;;;;;;;35.40;31.53;100078.88;5511128;32;34729;-86
2023/06/30 06:28:23;;;;;;;11.25;7.45;;;;;;;35.29;31.64;100077.03;5510813;32;33920;-86
2023/06/30 06:31:27;;;;;;;8.30;7.15;;;;;;;36.70;29.49;100063.38;5510316;32;33830;-86
2023/06/30 06:34:30;;;;;;;12.50;7.20;;;;;;;36.10;30.26;100070.31;5510393;32;33814;-85
2023/06/30 06:37:32;;;;;;;9.18;7.60;;;;;;;33.74;33.34;100068.00;5512055;32;33687;-85
2023/06/30 06:40:35;;;;;;;9.18;7.00;;;;;;;31.92;35.58;100066.81;5513772;32;33647;-85
2023/06/30 06:43:38;;;;;;;9.65;6.95;;;;;;;29.22;41.06;100057.66;5519514;32;33700;-86
2023/06/30 06:46:40;;;;;;;10.77;7.03;;;;;;;28.05;44.56;100042.03;5516186;32;33769;-85
2023/06/30 06:49:43;;;;;;;11.57;6.32;;;;;;;28.02;43.91;100048.72;5510482;32;33744;-86
2023/06/30 06:52:48;;;;;;;11.23;5.90;;;;;;;27.76;47.88;100038.47;5512348;32;34465;-86
2023/06/30 06:55:53;;;;;;;10.18;4.97;;;;;;;27.88;45.76;100039.59;5517841;32;33915;-86
2023/06/30 06:58:56;;;;;;;7.65;5.15;;;;;;;27.71;46.17;100039.06;5514977;32;33486;-86
2023/06/30 07:01:59;;;;;;;11.25;4.87;;;;;;;27.84;45.47;100035.59;5525494;32;33872;-86
2023/06/30 07:05:02;;;;;;;9.23;5.65;;;;;;;28.02;45.83;100036.97;5524477;32;33566;-85
2023/06/30 07:08:04;;;;;;;8.98;5.47;;;;;;;28.10;44.43;100034.91;5518080;32;33835;-86
2023/06/30 07:11:08;;;;;;;9.70;5.00;;;;;;;27.79;44.56;100038.06;5515296;32;33562;-86
2023/06/30 07:14:10;;;;;;;8.50;5.70;;;;;;;27.83;47.04;100042.09;5524824;32;33943;-86
2023/06/30 07:17:13;;;;;;;7.95;3.95;;;;;;;28.47;45.67;100042.06;5528461;32;33788;-86
2023/06/30 07:20:16;;;;;;;10.23;4.00;;;;;;;28.73;42.88;100040.47;5515868;32;34744;-86
2023/06/30 07:23:19;;;;;;;8.73;4.32;;;;;;;28.88;41.96;100040.34;5509450;32;34638;-86
2023/06/30 07:26:22;;;;;;;13.62;4.75;;;;;;;29.07;41.26;100036.00;5524991;32;33582;-86
2023/06/30 07:29:25;;;;;;;6.43;3.50;;;;;;;29.38;42.32;100034.56;5519906;32;33872;-86
2023/06/30 07:32:27;;;;;;;10.07;3.50;;;;;;;29.39;38.22;100038.09;5514437;32;34356;-86
2023/06/30 07:35:30;;;;;;;6.75;3.78;;;;;;;29.17;39.61;100039.12;5524768;32;34173;-86
2023/06/30 07:38:33;;;;;;;5.80;3.87;;;;;;;28.91;41.60;100032.59;5521235;32;34724;-86
2023/06/30 07:41:36;;;;;;;9.55;4.15;;;;;;;29.37;40.56;100029.28;5512281;32;34796;-85
2023/06/30 07:44:38;;;;;;;6.18;3.50;;;;;;;29.57;40.02;100032.06;5520317;32;33796;-87
2023/06/30 07:47:42;;;;;;;5.62;3.70;;;;;;;30.18;38.04;100030.09;5514829;32;33708;-86
2023/06/30 07:50:45;;;;;;;5.65;3.30;;;;;;;30.11;38.13;100026.53;5508134;32;33855;-85
2023/06/30 07:54:08;;;;;;;5.53;3.17;;;;;;;29.57;37.22;100021.97;5508807;32;33936;-85
2023/06/30 07:57:11;;;;;;;4.70;3.40;;;;;;;29.89;38.56;100031.38;5508434;32;34051;-86
2023/06/30 08:00:15;;;;;;;4.85;3.37;;;;;;;29.92;38.44;100025.50;5518381;32;33479;-86
2023/06/30 08:03:19;;;;;;;4.85;3.10;;;;;;;30.36;38.16;100017.59;5524652;32;33446;-86
2023/06/30 08:06:23;;;;;;;5.32;3.35;;;;;;;30.71;36.91;100013.72;5528711;32;33566;-89
2023/06/30 08:09:26;;;;;;;10.35;3.03;;;;;;;30.89;35.80;100019.28;5522243;32;34639;-90
2023/06/30 08:12:29;;;;;;;6.10;3.10;;;;;;;30.89;34.85;100008.34;5523192;32;34041;-90
2023/06/30 08:15:32;;;;;;;3.80;2.87;;;;;;;30.85;36.28;100008.97;5512729;32;33652;-90
2023/06/30 08:18:34;;;;;;;3.05;2.80;;;;;;;30.98;34.00;100013.53;5510463;32;33646;-87
2023/06/30 08:21:37;;;;;;;3.62;2.58;;;;;;;31.02;34.09;100012.88;5513771;32;34211;-86
2023/06/30 08:24:41;;;;;;;4.20;2.55;;;;;;;30.61;34.71;100005.94;5518963;32;34471;-86
2023/06/30 08:27:44;;;;;;;5.35;2.78;;;;;;;31.31;32.72;100007.00;5509170;32;33540;-86
2023/06/30 08:30:46;;;;;;;5.97;3.10;;;;;;;31.45;33.54;99997.62;5509688;32;33805;-86
2023/06/30 08:33:50;;;;;;;4.93;2.50;;;;;;;31.84;32.29;100013.09;5523802;32;33814;-86
2023/06/30 08:36:54;;;;;;;6.12;2.80;;;;;;;32.18;32.54;100007.25;5528854;32;34182;-87
2023/06/30 08:39:57;;;;;;;3.05;2.80;;;;;;;32.33;32.17;100009.59;5530247;32;33680;-87
2023/06/30 08:43:05;;;;;;;4.55;3.20;;;;;;;32.90;31.60;100016.66;5530004;32;34325;-87
2023/06/30 08:46:10;;;;;;;3.58;2.60;;;;;;;32.97;30.69;100009.19;5529838;32;33440;-87
2023/06/30 08:49:13;;;;;;;3.53;2.90;;;;;;;33.05;30.27;100002.53;5510819;32;34626;-87
2023/06/30 08:52:16;;;;;;;3.22;2.45;;;;;;;32.95;31.13;100008.56;5530861;32;33692;-87
2023/06/30 08:55:18;;;;;;;6.97;3.03;;;;;;;33.58;30.41;100011.00;5530980;32;34176;-87
2023/06/30 08:58:22;;;;;;;4.45;2.45;;;;;;;33.82;28.92;100003.56;5532004;32;34164;-87
2023/06/30 09:01:28;;;;;;;3.72;2.75;;;;;;;33.43;29.59;99993.03;5530184;32;34469;-87
2023/06/30 09:04:31;;;;;;;3.08;2.67;;;;;;;33.95;29.59;99996.13;5533426;32;33663;-86
2023/06/30 09:07:54;;;;;;;7.18;2.78;;;;;;;33.99;28.64;100002.84;5532560;32;33928;-87
2023/06/30 09:10:58;;;;;;;2.85;2.55;;;;;;;33.81;28.32;99995.56;5536271;32;34031;-87
2023/06/30 09:14:03;;;;;;;4.50;2.78;;;;;;;33.72;28.67;99993.19;5520093;32;34204;-86
2023/06/30 09:17:06;;;;;;;6.50;2.62;;;;;;;33.71;28.76;100001.66;5520099;32;34113;-87
2023/06/30 09:20:13;;;;;;;5.62;2.65;;;;;;;33.27;29.38;99996.50;5520412;32;33988;-87
2023/06/30 09:23:16;;;;;;;3.97;2.35;;;;;;;33.51;29.24;99983.63;5519751;32;35253;-86
2023/06/30 09:26:19;;;;;;;2.70;2.50;;;;;;;33.96;27.46;99990.41;5521014;32;34007;-86
2023/06/30 09:29:23;;;;;;;2.95;2.50;;;;;;;34.16;26.97;99988.34;5511104;32;33658;-86
2023/06/30 09:32:31;;;;;;;4.37;2.55;;;;;;;34.90;26.53;99992.28;5510457;32;33844;-87
2023/06/30 09:35:38;;;;;;;2.53;2.28;;;;;;;34.20;28.35;99984.88;5510139;32;33613;-87
2023/06/30 09:38:41;;;;;;;2.90;2.20;;;;;;;33.98;27.71;99980.00;5510347;32;33991;-87
2023/06/30 09:41:45;;;;;;;4.55;2.40;;;;;;;34.24;27.22;99975.03;5510317;32;34743;-87
2023/06/30 09:44:52;;;;;;;5.12;2.65;;;;;;;34.91;26.88;99970.00;5509727;32;34976;-87
2023/06/30 09:47:55;;;;;;;5.10;2.20;;;;;;;35.17;26.91;99961.34;5509933;32;33590;-87
2023/06/30 09:50:58;;;;;;;2.10;2.00;;;;;;;35.86;25.64;99960.16;5510121;32;34669;-87
2023/06/30 09:54:01;;;;;;;4.43;2.22;;;;;;;36.07;24.86;99963.19;5510098;32;33853;-91
2023/06/30 09:57:05;;;;;;;4.60;2.50;;;;;;;35.65;25.96;99963.72;5509985;32;34123;-91
2023/06/30 10:00:11;;;;;;;4.65;2.70;;;;;;;33.96;28.17;99962.03;5510101;32;33953;-91
2023/06/30 10:03:34;;;;;;;5.32;2.65;;;;;;;33.06;29.49;99958.34;5509869;32;34924;-87
2023/06/30 10:06:38;;;;;;;3.83;2.62;;;;;;;34.09;27.95;99958.22;5509938;32;33732;-87
2023/06/30 10:09:46;;;;;;;4.15;2.50;;;;;;;34.28;27.54;99969.87;5513951;32;33813;-87
2023/06/30 10:12:49;;;;;;;3.22;2.55;;;;;;;34.04;28.50;99969.97;5509788;32;33885;-87
2023/06/30 10:15:53;;;;;;;3.15;2.65;;;;;;;33.73;28.45;99961.00;5510659;32;33410;-87
2023/06/30 10:18:58;;;;;;;3.03;2.33;;;;;;;33.65;28.39;99962.22;5520953;32;34521;-86
2023/06/30 10:22:03;;;;;;;2.60;2.40;;;;;;;34.88;28.26;99958.62;5509329;32;33268;-86
2023/06/30 10:25:08;;;;;;;3.15;2.05;;;;;;;35.21;26.57;99965.28;5509820;32;33743;-86
2023/06/30 10:28:11;;;;;;;3.83;2.40;;;;;;;36.66;24.73;99966.38;5510278;32;33612;-86
2023/06/30 10:31:14;;;;;;;6.10;2.60;;;;;;;37.06;24.93;99962.28;5508954;32;35307;-87
2023/06/30 10:34:17;;;;;;;3.30;2.50;;;;;;;37.41;24.43;99960.09;5509314;32;34832;-87
2023/06/30 10:37:20;;;;;;;2.37;1.90;;;;;;;36.72;23.47;99964.47;5509677;32;33626;-87
2023/06/30 10:40:28;;;;;;;3.90;2.20;;;;;;;35.99;24.56;99961.69;5513955;32;34431;-86
2023/06/30 10:44:09;;;;;;;2.58;2.25;;;;;;;35.17;24.95;99955.81;5515944;32;34021;-86
2023/06/30 10:47:13;;;;;;;2.80;2.20;;;;;;;34.68;26.23;99949.75;5528826;32;33620;-85
2023/06/30 10:50:17;;;;;;;3.78;2.30;;;;;;;33.81;27.16;99948.78;5524768;32;34042;-86
2023/06/30 10:53:20;;;;;;;2.50;2.28;;;;;;;33.20;28.70;99950.69;5520916;32;33563;-85
2023/06/30 10:56:23;;;;;;;2.80;2.08;;;;;;;32.83;28.07;99944.53;5528711;32;33677;-86
2023/06/30 10:59:35;;;;;;;2.85;2.17;;;;;;;32.92;28.52;99940.34;5527567;32;33854;-85
2023/06/30 11:02:55;;;;;;;3.47;2.40;;;;;;;33.16;28.47;99933.03;5525917;32;34710;-86
2023/06/30 11:06:15;;;;;;;8.43;2.58;;;;;;;33.74;28.68;99929.69;5521225;32;34667;-88
2023/06/30 11:09:18;;;;;;;2.80;2.47;;;;;;;34.89;26.59;99928.06;5513513;32;33813;-86
2023/06/30 11:12:25;;;;;;;2.92;2.25;;;;;;;35.13;25.81;99933.44;5518997;32;34430;-86
2023/06/30 11:15:48;;;;;;;2.40;2.25;;;;;;;33.81;26.61;99924.06;5513763;32;34855;-86
2023/06/30 11:18:59;;;;;;;2.87;2.53;;;;;;;33.74;27.21;99913.19;5509469;32;33619;-86
2023/06/30 11:22:25;;;;;;;5.50;2.60;;;;;;;32.26;29.21;99919.97;5517729;32;33447;-85
2023/06/30 11:25:30;;;;;;;4.10;2.50;;;;;;;33.18;28.85;99908.06;5520747;32;33638;-86
2023/06/30 11:28:33;;;;;;;3.15;2.67;;;;;;;32.59;29.21;99900.53;5516263;32;34052;-85
2023/06/30 11:31:36;;;;;;;3.15;2.50;;;;;;;32.41;30.72;99902.28;5515286;32;33910;-86
2023/06/30 11:34:39;;;;;;;2.72;2.30;;;;;;;32.54;29.59;99895.75;5514204;32;33808;-86
2023/06/30 11:37:52;;;;;;;5.37;2.90;;;;;;;32.88;28.90;99896.06;5526464;32;34881;-87
2023/06/30 11:40:59;;;;;;;3.42;2.50;;;;;;;32.30;29.01;99889.31;5507977;32;32440;-87
2023/06/30 11:44:02;;;;;;;4.68;2.30;;;;;;;32.03;30.31;99887.78;5508578;32;32462;-86
2023/06/30 11:47:05;;;;;;;2.85;2.42;;;;;;;32.37;29.02;99890.06;5508819;32;34572;-86
2023/06/30 11:50:09;;;;;;;6.72;2.58;;;;;;;32.59;28.97;99878.59;5508804;32;33743;-86
2023/06/30 11:53:11;;;;;;;3.17;2.70;;;;;;;32.69;29.78;99878.00;5514409;32;34420;-86
2023/06/30 11:56:17;;;;;;;3.08;2.78;;;;;;;31.84;31.38;99876.00;5524577;32;33837;-86
2023/06/30 11:59:20;;;;;;;2.90;2.60;;;;;;;32.05;30.94;99869.19;5517121;32;33438;-86
2023/06/30 12:02:23;;;;;;;3.45;2.85;;;;;;;31.87;31.35;99864.56;5521963;32;34361;-86
2023/06/30 12:05:27;;;;;;;3.30;2.70;;;;;;;30.76;32.44;99855.94;5518133;32;33976;-86
2023/06/30 12:08:30;;;;;;;3.00;2.50;;;;;;;30.15;33.76;99851.94;5511234;32;34246;-87
2023/06/30 12:11:33;;;;;;;3.22;2.90;;;;;;;30.70;33.27;99856.84;5530466;32;32495;-89
2023/06/30 12:14:42;;;;;;;2.72;2.53;;;;;;;30.95;32.27;99855.16;5531863;32;34266;-89
2023/06/30 12:17:45;;;;;;;2.47;2.28;;;;;;;30.80;32.70;99845.41;5531602;32;33943;-86
2023/06/30 12:20:49;;;;;;;2.62;2.42;;;;;;;30.89;32.48;99843.22;5531004;32;33892;-86
2023/06/30 12:23:54;;;;;;;4.90;2.33;;;;;;;30.99;31.39;99843.56;5531113;32;33528;-86
2023/06/30 12:26:57;;;;;;;3.80;3.00;;;;;;;31.30;30.99;99840.94;5531255;32;34456;-87
2023/06/30 12:30:00;;;;;;;3.00;2.70;;;;;;;31.25;31.21;99836.13;5531020;32;34943;-87
2023/06/30 12:33:03;;;;;;;3.53;2.80;;;;;;;31.09;31.30;99837.56;5530753;32;33636;-87
2023/06/30 12:36:07;;;;;;;3.58;2.80;;;;;;;30.81;33.09;99835.28;5531494;32;33488;-86
2023/06/30 12:39:09;;;;;;;3.53;3.17;;;;;;;30.62;32.77;99827.81;5532524;32;33524;-86
2023/06/30 12:42:13;;;;;;;4.57;3.45;;;;;;;30.17;33.59;99827.94;5531973;32;33722;-86
2023/06/30 12:45:16;;;;;;;3.75;2.85;;;;;;;30.33;34.30;99818.37;5531273;32;34366;-86
2023/06/30 12:48:19;;;;;;;3.30;3.00;;;;;;;30.13;34.50;99811.13;5530830;32;33847;-87
2023/06/30 12:51:22;;;;;;;3.47;3.17;;;;;;;29.40;35.35;99815.78;5530841;32;34524;-86
2023/06/30 12:54:25;;;;;;;4.78;3.03;;;;;;;29.97;35.84;99817.94;5532302;32;33897;-86
2023/06/30 12:57:28;;;;;;;5.60;3.50;;;;;;;30.13;35.51;99816.59;5531698;32;34914;-86
2023/06/30 13:00:31;;;;;;;2.85;2.65;;;;;;;30.49;33.92;99814.25;5532294;32;34455;-86
2023/06/30 13:03:34;;;;;;;2.85;2.65;;;;;;;30.63;33.49;99807.59;5530979;32;34409;-86
2023/06/30 13:06:39;;;;;;;5.37;2.85;;;;;;;30.54;33.20;99811.69;5532014;32;33476;-86
2023/06/30 13:09:42;;;;;;;5.97;3.10;;;;;;;30.08;34.56;99811.78;5532006;32;33741;-86
2023/06/30 13:12:45;;;;;;;5.28;2.80;;;;;;;29.60;34.98;99802.09;5532741;32;33718;-86
2023/06/30 13:15:47;;;;;;;2.95;2.72;;;;;;;30.18;33.65;99794.06;5531553;32;34925;-86
2023/06/30 13:18:51;;;;;;;2.53;2.33;;;;;;;29.93;33.57;99795.66;5533246;32;33884;-85
2023/06/30 13:21:53;;;;;;;4.03;3.05;;;;;;;30.28;32.89;99796.31;5531690;32;34819;-86
2023/06/30 13:24:56;;;;;;;3.12;2.60;;;;;;;30.34;33.66;99782.59;5533072;32;33785;-86
2023/06/30 13:27:59;;;;;;;4.25;3.20;;;;;;;30.47;31.82;99786.28;5533694;32;33868;-86
2023/06/30 13:31:05;;;;;;;5.00;2.67;;;;;;;30.23;33.40;99783.28;5533128;32;33898;-86
2023/06/30 13:34:08;;;;;;;3.22;2.80;;;;;;;29.96;35.24;99769.78;5533798;32;33766;-85
2023/06/30 13:37:15;;;;;;;4.47;3.10;;;;;;;30.23;35.30;99769.62;5535595;32;34857;-85
2023/06/30 13:40:17;;;;;;;4.32;2.97;;;;;;;30.07;34.59;99762.75;5534513;32;34339;-85
2023/06/30 13:43:21;;;;;;;5.97;2.90;;;;;;;29.89;34.15;99764.34;5534814;32;34025;-85
2023/06/30 13:46:24;;;;;;;3.42;3.12;;;;;;;29.91;35.05;99751.28;5534688;32;33883;-85
2023/06/30 13:49:27;;;;;;;3.30;3.00;;;;;;;29.38;36.76;99747.75;5533730;32;33416;-85
2023/06/30 13:52:30;;;;;;;4.28;3.35;;;;;;;29.26;36.55;99742.09;5533328;32;34950;-85
2023/06/30 13:55:33;;;;;;;3.35;2.90;;;;;;;29.04;36.22;99741.53;5532656;32;33833;-85
2023/06/30 13:58:40;;;;;;;3.80;3.33;;;;;;;29.04;35.46;99736.94;5533483;32;33606;-85
2023/06/30 14:01:43;;;;;;;3.60;3.28;;;;;;;29.10;35.60;99731.69;5533476;32;34869;-85
2023/06/30 14:04:46;;;;;;;3.42;3.12;;;;;;;28.65;36.74;99733.19;5533688;32;33787;-85
2023/06/30 14:07:49;;;;;;;4.18;3.00;;;;;;;28.76;36.76;99732.53;5534369;32;33970;-85
2023/06/30 14:10:52;;;;;;;7.18;2.83;;;;;;;29.41;35.61;99719.16;5533703;32;34163;-86
2023/06/30 14:13:54;;;;;;;4.18;3.50;;;;;;;29.36;36.08;99722.53;5533487;32;35122;-85
2023/06/30 14:16:57;;;;;;;5.47;3.37;;;;;;;29.37;35.49;99717.91;5535005;32;34243;-85
2023/06/30 14:20:00;;;;;;;3.55;3.22;;;;;;;29.63;35.63;99708.78;5533971;32;33994;-85
2023/06/30 14:23:03;;;;;;;6.32;3.25;;;;;;;29.09;36.09;99705.41;5533391;32;34649;-89
2023/06/30 14:26:05;;;;;;;3.47;2.87;;;;;;;28.37;37.92;99696.91;5533218;32;33430;-89
2023/06/30 14:29:08;;;;;;;5.70;3.03;;;;;;;28.39;36.79;99691.25;5533434;32;33902;-90
2023/06/30 14:32:11;;;;;;;5.43;3.40;;;;;;;28.36;36.79;99688.97;5532875;32;34040;-90
2023/06/30 14:35:14;;;;;;;3.67;3.28;;;;;;;28.82;38.14;99681.75;5533754;32;34210;-86
2023/06/30 14:38:16;;;;;;;6.18;3.25;;;;;;;28.91;36.25;99683.22;5535358;32;33734;-86
2023/06/30 14:41:22;;;;;;;3.58;2.95;;;;;;;29.02;36.62;99673.50;5535221;32;33835;-85
2023/06/30 14:44:25;;;;;;;7.70;3.33;;;;;;;28.97;36.78;99661.56;5538175;32;34014;-86
2023/06/30 14:47:29;;;;;;;3.67;3.37;;;;;;;28.76;35.75;99672.50;5536023;32;34010;-86
2023/06/30 14:50:32;;;;;;;3.87;3.00;;;;;;;28.15;37.70;99665.44;5535272;32;34218;-86
2023/06/30 14:53:35;;;;;;;3.95;3.20;;;;;;;28.22;37.19;99667.13;5534368;32;34899;-85
2023/06/30 14:56:38;;;;;;;3.20;2.90;;;;;;;28.46;36.79;99658.53;5535330;32;34080;-86
2023/06/30 14:59:41;;;;;;;4.62;2.90;;;;;;;28.71;35.04;99655.94;5534153;32;34689;-86
2023/06/30 15:02:44;;;;;;;3.40;2.83;;;;;;;28.91;34.98;99644.19;5534374;32;33773;-86
2023/06/30 15:05:47;;;;;;;3.90;3.12;;;;;;;28.91;36.39;99639.53;5533058;32;33858;-86
2023/06/30 15:08:50;;;;;;;5.10;3.50;;;;;;;28.94;35.41;99643.72;5533935;32;34624;-86
2023/06/30 15:11:53;;;;;;;6.28;3.00;;;;;;;28.78;35.18;99639.56;5534092;32;33620;-86
